Latest Weather Observations for Camooweal

IDD60801

Issued at 4:31 pm CST Friday 3 December 2021 (issued every 10 minutes, with the page automatically refreshed every 10 minutes)

About weather observations | Map of weather stations | Latest weather observations for NT | Other Formats
Station Details ID: 037010 Name: CAMOOWEAL TOWNSHIP Lat: -19.92 Lon: 138.12 Height: 231.2 m
Data from the previous 72 hours. | See also: Recent months at Camooweal
Date/Time
CST
Temp
°C
App
Temp
°C
Dew
Point
°C
Rel
Hum
%
Delta-T
°C
Wind Press
QNH
hPa
Press
MSL
hPa
Rain since
9am
mm
Dir  Spd
km/h
Gust
km/h
Spd
kts
Gust
kts
03/04:30pm 40.1 36.3 7.5 14 18.8 ESE 17 33 9 18 1007.5 1005.7 0.0
03/04:00pm 40.3 37.3 7.7 14 18.8 ESE 13 20 7 11 1007.7 1005.9 0.0
03/03:30pm 40.5 37.5 7.8 14 19.0 S 13 22 7 12 1007.9 1006.1 0.0
03/03:00pm 40.6 36.6 6.8 13 19.3 S 17 37 9 20 1008.3 1006.5 0.0
03/02:30pm 40.3 36.2 7.7 14 18.8 SSE 19 35 10 19 1008.8 1007.0 0.0
03/02:00pm 40.5 37.1 7.8 14 18.9 ESE 15 24 8 13 1009.2 1007.4 0.0
03/01:35pm 40.2 36.7 8.6 15 18.5 E 17 46 9 25 1009.2 1007.4 0.0
03/01:30pm 39.8 36.8 9.2 16 18.0 ESE 15 20 8 11 1009.6 1007.8 0.0
03/01:00pm 39.7 36.5 10.1 17 17.6 SE 17 28 9 15 1010.1 1008.4 0.0
03/12:30pm 39.3 37.4 10.6 18 17.2 SE 11 26 6 14 1010.7 1008.9 0.0
03/12:00pm 39.0 35.3 9.5 17 17.4 ESE 19 30 10 16 1011.2 1009.4 0.0
03/11:30am 38.5 34.8 10.0 18 16.9 E 20 33 11 18 1011.7 1009.9 0.0
03/11:00am 39.1 35.7 11.3 19 16.8 E 20 35 11 19 1011.9 1010.1 0.0
03/10:30am 38.1 34.2 12.0 21 15.9 E 24 35 13 19 1012.2 1010.4 0.0
03/10:00am 37.6 33.8 12.3 22 15.4 ENE 24 37 13 20 1012.3 1010.5 0.0
03/09:30am 36.8 32.0 12.9 24 14.7 E 30 39 16 21 1012.5 1010.7 0.0
03/09:00am 36.5 33.0 13.3 25 14.3 E 24 33 13 18 1012.5 1010.7 0.0
03/08:30am 35.7 32.0 12.6 25 14.1 ENE 24 35 13 19 1012.4 1010.6 0.0
03/08:00am 34.6 31.0 12.9 27 13.2 E 24 35 13 19 1012.4 1010.6 0.0
03/07:30am 32.9 30.1 11.4 27 12.7 ESE 17 20 9 11 1012.1 1010.3 0.0
03/07:00am 31.0 29.2 10.9 29 11.7 SE 11 17 6 9 1011.9 1010.1 0.0
03/06:30am 29.4 27.6 11.0 32 10.7 ESE 11 15 6 8 1011.7 1009.9 0.0
03/06:00am 27.8 26.7 10.5 34 9.9 SE 7 11 4 6 1011.4 1009.6 0.0
03/05:30am 26.2 26.4 10.4 37 8.9 CALM 0 0 0 0 1011.0 1009.2 0.0
03/05:00am 27.9 26.5 9.7 32 10.2 NNE 7 9 4 5 1010.5 1008.8 0.0
03/04:30am 28.4 26.6 9.6 31 10.6 E 9 11 5 6 1009.8 1008.0 0.0
03/04:00am 29.2 26.6 9.3 29 11.2 SE 13 17 7 9 1009.3 1007.5 0.0
03/03:30am 29.8 26.4 9.3 28 11.6 SE 17 20 9 11 1009.1 1007.3 0.0
03/03:00am 30.5 26.6 8.8 26 12.2 SE 19 26 10 14 1009.1 1007.3 0.0
03/02:30am 28.3 25.8 9.6 31 10.5 SE 13 17 7 9 1009.0 1007.2 0.0
03/02:00am 27.9 25.3 9.2 31 10.4 ESE 13 13 7 7 1009.1 1007.3 0.0
03/01:30am 27.9 25.7 9.2 31 10.4 SE 11 13 6 7 1009.1 1007.3 0.0
03/01:00am 28.6 26.2 8.8 29 11.0 SE 11 15 6 8 1009.5 1007.7 0.0
03/12:30am 28.6 26.5 8.3 28 11.2 SE 9 11 5 6 1009.8 1008.0 0.0
03/12:00am 28.9 27.1 8.0 27 11.5 SE 7 9 4 5 1009.9 1008.2 0.0
 
Date/Time
CST
Temp
°C
App
Temp
°C
Dew
Point
°C
Rel
Hum
%
Delta-T
°C
Wind Press
QNH
hPa
Press
MSL
hPa
Rain since
9am
mm
Dir  Spd
km/h
Gust
km/h
Spd
kts
Gust
kts
02/11:30pm 29.4 27.4 8.5 27 11.6 ESE 9 11 5 6 1010.1 1008.4 0.0
02/11:00pm 30.1 27.9 7.9 25 12.3 E 9 11 5 6 1010.3 1008.6 0.0
02/10:30pm 31.2 28.6 7.6 23 13.1 ESE 11 13 6 7 1010.3 1008.6 0.0
02/10:00pm 32.6 29.9 7.4 21 14.0 E 11 15 6 8 1010.2 1008.5 0.0
02/09:30pm 33.3 30.6 7.3 20 14.5 ENE 11 17 6 9 1009.9 1008.2 0.0
02/09:00pm 32.1 29.9 7.7 22 13.6 SSE 9 13 5 7 1009.6 1007.8 0.0
02/08:30pm 33.8 30.8 7.7 20 14.6 SSE 13 19 7 10 1009.4 1007.6 0.0
02/08:00pm 33.3 31.3 8.7 22 14.0 SE 9 11 5 6 1009.1 1007.3 0.0
02/07:30pm 34.3 32.2 8.1 20 14.8 SSE 9 11 5 6 1008.6 1006.8 0.0
02/07:00pm 35.9 32.7 7.0 17 16.2 SE 13 15 7 8 1008.2 1006.4 0.0
02/06:30pm 37.8 34.7 5.7 14 17.8 SSE 11 20 6 11 1007.8 1006.0 0.0
02/06:00pm 39.2 34.6 5.7 13 18.7 SE 19 24 10 13 1007.4 1005.6 0.0
02/05:30pm 39.9 35.8 6.3 13 19.0 SE 17 26 9 14 1007.1 1005.3 0.0
02/05:00pm 40.3 37.0 6.6 13 19.1 E 13 26 7 14 1007.0 1005.2 0.0
02/04:39pm 40.9 37.8 7.1 13 19.4 S 13 50 7 27 1006.4 1004.6 0.0
02/04:30pm 40.6 37.0 6.8 13 19.3 S 15 30 8 16 1006.9 1005.1 0.0
02/04:00pm 40.5 36.5 6.7 13 19.2 SSE 17 35 9 19 1006.9 1005.1 0.0
02/03:30pm 40.7 36.5 5.7 12 19.7 SSE 17 26 9 14 1007.2 1005.4 0.0
02/03:00pm 40.9 37.4 7.1 13 19.4 SE 15 30 8 16 1007.4 1005.6 0.0
02/02:30pm 41.0 36.9 6.0 12 19.8 E 17 26 9 14 1007.7 1005.9 0.0
02/02:00pm 41.1 36.8 7.2 13 19.5 E 19 30 10 16 1008.1 1006.3 0.0
02/01:30pm 41.2 37.1 6.1 12 19.9 S 17 30 9 16 1008.5 1006.7 0.0
02/01:00pm 40.2 36.2 6.5 13 19.1 SE 17 28 9 15 1008.9 1007.1 0.0
02/12:42pm 40.5 37.0 5.6 12 19.6 NE 13 46 7 25 1009.1 1007.3 0.0
02/12:41pm 40.3 36.8 5.4 12 19.5 NE 13 46 7 25 1008.8 1007.0 0.0
02/12:30pm 40.1 37.3 5.3 12 19.4 S 9 22 5 12 1009.3 1007.5 0.0
02/12:00pm 40.4 36.9 5.5 12 19.5 E 13 26 7 14 1009.6 1007.8 0.0
02/11:30am 40.0 36.4 5.2 12 19.4 SE 13 26 7 14 1010.0 1008.3 0.0
02/11:00am 39.2 35.3 3.4 11 19.3 SSE 13 22 7 12 1010.3 1008.6 0.0
02/10:30am 38.8 34.1 3.1 11 19.1 E 17 28 9 15 1010.5 1008.8 0.0
02/10:00am 38.0 33.9 7.8 16 17.3 E 19 26 10 14 1010.7 1008.9 0.0
02/09:30am 37.2 33.4 8.9 18 16.4 ESE 19 24 10 13 1010.9 1009.1 0.0
02/09:00am 35.9 32.0 9.4 20 15.4 ESE 20 28 11 15 1011.1 1009.3 0.0
02/08:30am 34.6 29.5 9.1 21 14.7 ESE 26 33 14 18 1011.0 1009.2 -
02/08:00am 33.3 28.9 7.3 20 14.4 ESE 20 32 11 17 1011.0 1009.2 -
02/07:30am 32.0 27.5 6.2 20 14.0 SE 19 26 10 14 1010.8 1009.0 -
02/07:00am 29.4 27.2 7.9 26 11.8 SSE 9 13 5 7 1010.4 1008.7 -
02/06:59am 29.2 27.3 7.7 26 11.8 SSE 7 13 4 7 1010.4 1008.7 -
02/06:30am 24.1 22.3 8.1 36 8.6 SSW 7 9 4 5 1010.1 1008.4 -
02/06:00am 22.2 20.1 8.3 41 7.4 SSW 9 9 5 5 1009.9 1008.2 -
02/05:30am 21.9 19.8 8.4 42 7.2 S 9 11 5 6 1009.5 1007.7 -
02/05:00am 22.1 20.0 5.9 35 8.2 SSW 6 6 3 3 1009.3 1007.5 -
02/04:30am 21.4 20.8 7.3 40 7.4 CALM 0 0 0 0 1008.9 1007.1 -
02/04:00am 22.4 20.4 6.2 35 8.3 ESE 6 7 3 4 1008.7 1006.9 -
02/03:30am 24.6 22.3 4.9 28 10.0 ENE 6 7 3 4 1008.6 1006.8 -
02/03:00am 24.5 22.2 4.8 28 10.0 E 6 7 3 4 1008.4 1006.6 -
02/02:30am 23.9 21.4 4.8 29 9.7 ESE 7 11 4 6 1008.4 1006.6 0.0
02/02:00am 24.0 21.6 4.4 28 9.8 ESE 6 9 3 5 1008.5 1006.7 -
02/01:30am 25.9 23.4 3.8 24 11.1 ESE 6 7 3 4 1008.5 1006.7 -
02/01:00am 25.9 22.1 3.8 24 11.1 ESE 13 15 7 8 1008.6 1006.8 -
02/12:30am 26.8 23.0 4.0 23 11.6 ESE 13 13 7 7 1008.8 1007.0 -
02/12:00am 26.7 23.3 3.9 23 11.5 ESE 11 13 6 7 1009.1 1007.3 -
 
Date/Time
CST
Temp
°C
App
Temp
°C
Dew
Point
°C
Rel
Hum
%
Delta-T
°C
Wind Press
QNH
hPa
Press
MSL
hPa
Rain since
9am
mm
Dir  Spd
km/h
Gust
km/h
Spd
kts
Gust
kts
01/11:30pm 26.6 22.9 4.4 24 11.3 ESE 13 13 7 7 1009.4 1007.6 -
01/11:00pm 26.6 22.9 4.4 24 11.3 ESE 13 13 7 7 1009.6 1007.8 -
01/10:30pm 26.5 23.4 3.7 23 11.5 SE 9 11 5 6 1009.8 1008.0 -
01/10:00pm 28.2 24.6 3.1 20 12.6 E 11 13 6 7 1009.5 1007.7 -
01/09:30pm 28.1 24.9 3.0 20 12.6 ESE 9 11 5 6 1009.3 1007.5 -
01/09:00pm 28.6 24.5 2.0 18 13.2 ESE 13 15 7 8 1009.0 1007.2 -
01/08:30pm 29.1 25.0 2.4 18 13.4 ESE 13 13 7 7 1008.8 1007.0 0.0
01/08:00pm 29.5 25.3 1.9 17 13.7 ESE 13 15 7 8 1008.5 1006.7 -
01/07:30pm 30.9 26.5 0.3 14 15.0 SE 13 15 7 8 1008.1 1006.3 -
01/07:00pm 33.3 28.9 0.1 12 16.4 SSE 13 17 7 9 1007.9 1006.1 -
01/06:30pm 35.6 30.3 -0.7 10 18.0 SSE 17 22 9 12 1007.4 1005.6 -
01/06:00pm 37.3 32.2 0.6 10 18.7 S 17 26 9 14 1006.9 1005.1 -
01/05:30pm 38.0 32.6 1.1 10 19.1 S 19 30 10 16 1006.7 1004.9 -
01/05:00pm 38.2 31.6 -0.2 9 19.5 S 24 35 13 19 1006.6 1004.8 -
01/04:30pm 38.9 33.4 0.3 9 19.9 SSW 19 37 10 20 1006.3 1004.5 -
01/04:00pm 38.8 33.9 1.7 10 19.4 S 17 26 9 14 1006.4 1004.6 -
01/03:30pm 39.2 33.7 0.6 9 20.0 SSW 19 43 10 23 1006.5 1004.7 -
01/03:00pm 39.7 34.5 2.4 10 19.8 SW 19 28 10 15 1006.8 1005.0 -
01/02:30pm 38.6 33.4 0.1 9 19.7 SW 17 32 9 17 1007.1 1005.3 -
01/02:00pm 38.4 32.8 1.4 10 19.3 SW 20 32 11 17 1007.5 1005.7 -
01/01:30pm 38.7 32.6 3.0 11 19.1 WSW 24 33 13 18 1008.1 1006.3 -
01/01:00pm 38.3 33.9 2.7 11 18.9 SSW 15 22 8 12 1008.5 1006.7 -
01/12:30pm 38.0 33.6 4.8 13 18.2 S 17 26 9 14 1009.0 1007.2 -
01/12:00pm 37.8 32.8 3.5 12 18.4 WSW 19 32 10 17 1009.6 1007.8 -
01/10:00am 36.0 32.6 2.1 12 17.6 ESE 9 17 5 9 1011.4 1009.6 0.0
01/09:30am 35.3 31.7 2.7 13 17.0 ESE 11 15 6 8 1011.8 1010.0 0.0
01/09:00am 34.3 30.7 3.0 14 16.3 E 11 19 6 10 1011.9 1010.2 0.0
01/08:30am 33.5 29.0 4.2 16 15.5 ENE 17 24 9 13 1011.9 1010.2 0.0
01/08:00am 31.8 27.0 4.6 18 14.3 ENE 19 24 10 13 1011.7 1010.0 0.0
01/07:30am 30.0 26.5 5.3 21 13.1 E 13 19 7 10 1011.5 1009.8 0.0
01/07:00am 27.9 24.2 6.1 25 11.5 ENE 15 20 8 11 1011.3 1009.6 0.0
01/06:30am 25.0 22.4 6.2 30 9.8 NNE 9 13 5 7 1011.0 1009.3 0.0
01/06:00am 23.1 19.9 6.8 35 8.5 NNE 13 20 7 11 1010.7 1009.0 0.0
01/05:30am 21.8 18.4 6.1 36 8.0 ESE 13 15 7 8 1009.8 1008.2 0.0
01/05:00am 23.7 20.2 5.6 31 9.3 ESE 13 20 7 11 1009.4 1007.8 0.0
01/04:30am 24.2 20.8 6.0 31 9.4 SSE 13 19 7 10 1009.2 1007.6 0.0
01/04:00am 21.7 19.7 8.6 43 7.0 S 9 11 5 6 1009.0 1007.3 0.0
01/03:30am 21.9 19.9 8.8 43 7.0 SW 9 11 5 6 1008.7 1007.0 0.0
01/03:00am 23.6 21.7 6.8 34 8.8 ESE 6 7 3 4 1008.5 1006.8 0.0
01/02:30am 24.3 22.8 7.0 33 9.1 E 4 7 2 4 1008.6 1006.9 0.0
01/02:00am 23.8 22.2 8.2 37 8.4 SSE 6 7 3 4 1008.6 1006.9 0.0
01/01:30am 23.5 21.6 7.6 36 8.4 SW 7 7 4 4 1008.8 1007.1 0.0
01/01:00am 24.6 23.6 7.3 33 9.2 SE 2 7 1 4 1008.8 1007.1 0.0
01/12:30am 25.2 22.3 6.4 30 9.9 SE 11 13 6 7 1009.2 1007.6 0.0
01/12:00am 25.7 22.3 5.8 28 10.3 SE 13 17 7 9 1009.4 1007.8 0.0
 
Date/Time
CST
Temp
°C
App
Temp
°C
Dew
Point
°C
Rel
Hum
%
Delta-T
°C
Wind Press
QNH
hPa
Press
MSL
hPa
Rain since
9am
mm
Dir  Spd
km/h
Gust
km/h
Spd
kts
Gust
kts
30/11:30pm 26.8 23.6 6.8 28 10.7 E 13 17 7 9 1009.3 1007.7 0.0
30/11:00pm 27.6 24.6 5.8 25 11.5 ENE 11 13 6 7 1009.3 1007.7 0.0
30/10:30pm 27.6 25.1 6.4 26 11.3 E 9 13 5 7 1009.4 1007.8 0.0
30/10:00pm 27.3 25.2 5.6 25 11.3 SE 6 7 3 4 1009.2 1007.6 0.0
30/09:30pm 27.7 25.6 6.5 26 11.3 S 7 13 4 7 1009.0 1007.3 0.0
30/09:00pm 28.3 25.9 5.2 23 12.1 S 7 15 4 8 1008.7 1007.0 0.0
30/08:30pm 28.4 25.2 5.3 23 12.1 S 11 15 6 8 1008.3 1006.6 0.0
30/08:00pm 29.6 26.4 5.0 21 12.9 SSE 11 15 6 8 1007.9 1006.2 0.0
30/07:30pm 30.3 27.4 4.9 20 13.4 SW 9 13 5 7 1007.5 1005.8 0.0
30/07:00pm 32.0 28.8 3.1 16 14.9 SSW 9 11 5 6 1007.2 1005.5 0.0
30/06:30pm 34.5 30.4 2.1 13 16.7 SSW 13 19 7 10 1006.9 1005.2 0.0
30/06:00pm 36.4 31.4 1.2 11 18.1 SW 17 22 9 12 1006.6 1004.9 0.0
30/05:30pm 37.1 32.9 1.8 11 18.4 SSW 13 26 7 14 1006.3 1004.6 0.0
30/05:00pm 37.3 32.4 1.9 11 18.4 SW 17 24 9 13 1006.3 1004.6 0.0
30/04:30pm 37.7 33.0 0.9 10 19.0 S 15 20 8 11 1006.3 1004.6 0.0

Other formats

Comma delimited format used in spreadsheet applications
http://www.bom.gov.au/fwo/IDD60801/IDD60801.94255.axf

JavaScript Object Notation format (JSON) in row-major order
http://www.bom.gov.au/fwo/IDD60801/IDD60801.94255.json

Data quality

Most of these data are generated automatically and are frequently updated. Quality checks on data are not normally performed. It is possible for incorrect values to appear. Refer to information at About Latest Weather Observations and please check the disclaimer before using these data.